Time;durP1;ratioP1;P1;durP2;ratioP2;P2;SDS_P1;SDS_P2;PMS_P1;PMS_P2;Temp;Humidity;BMP_temperature;BMP_pressure;BME280_temperature;BME280_humidity;BME280_pressure;Samples;Min_cycle;Max_cycle;Signal;HPM_P1;HPM_P2
2021/05/16 00:02:08;;;;;;;8.90;8.00;;;10.40;92.50;;;;;;5136671;27;20050;-68
2021/05/16 00:04:33;;;;;;;10.07;8.60;;;10.40;92.50;;;;;;5135724;27;20112;-68
2021/05/16 00:07:00;;;;;;;9.70;8.57;;;10.40;92.50;;;;;;5135196;27;20047;-68
2021/05/16 00:09:26;;;;;;;9.13;8.20;;;10.40;92.60;;;;;;5136342;27;20046;-68
2021/05/16 00:11:52;;;;;;;9.43;8.40;;;10.50;92.60;;;;;;5135776;27;20051;-68
2021/05/16 00:14:17;;;;;;;9.40;7.93;;;10.40;92.60;;;;;;5135316;27;20352;-67
2021/05/16 00:16:43;;;;;;;8.83;7.13;;;10.40;92.60;;;;;;5136059;27;20051;-68
2021/05/16 00:19:09;;;;;;;9.13;8.23;;;10.40;92.70;;;;;;5136376;27;20048;-68
2021/05/16 00:21:35;;;;;;;8.03;7.03;;;10.40;92.70;;;;;;5135363;27;20112;-68
2021/05/16 00:24:01;;;;;;;8.70;7.90;;;10.40;92.70;;;;;;5135898;27;20484;-68
2021/05/16 00:26:26;;;;;;;9.67;8.67;;;10.40;92.80;;;;;;5135480;27;20051;-68
2021/05/16 00:28:52;;;;;;;9.50;8.43;;;10.40;92.80;;;;;;5135061;27;20042;-68
2021/05/16 00:31:18;;;;;;;9.63;8.63;;;10.40;92.80;;;;;;5135789;27;20051;-68
2021/05/16 00:33:43;;;;;;;8.83;7.70;;;10.40;92.80;;;;;;5135857;27;20055;-68
2021/05/16 00:36:09;;;;;;;10.40;8.83;;;10.40;92.80;;;;;;5135260;27;20047;-68
2021/05/16 00:38:35;;;;;;;9.03;8.13;;;10.40;92.80;;;;;;5135557;27;20456;-68
2021/05/16 00:41:01;;;;;;;10.80;8.80;;;10.40;92.80;;;;;;5135465;27;20142;-68
2021/05/16 00:43:27;;;;;;;9.77;8.77;;;10.40;93.00;;;;;;5134692;27;20047;-68
2021/05/16 00:45:53;;;;;;;11.57;9.47;;;10.40;92.80;;;;;;5135603;27;20096;-68
2021/05/16 00:48:21;;;;;;;7.63;6.20;;;10.40;92.80;;;;;;5135302;27;20047;-68
2021/05/16 00:50:48;;;;;;;10.03;9.03;;;10.40;92.80;;;;;;5134697;27;20131;-68
2021/05/16 00:53:19;;;;;;;9.90;8.90;;;10.40;92.80;;;;;;5134686;27;20475;-68
2021/05/16 00:55:44;;;;;;;10.55;9.43;;;10.50;92.80;;;;;;5134747;27;20058;-68
2021/05/16 00:58:11;;;;;;;12.17;10.43;;;10.40;92.70;;;;;;5135539;27;20043;-68
2021/05/16 01:00:41;;;;;;;12.90;10.57;;;10.40;92.70;;;;;;5135315;27;20327;-68
2021/05/16 01:03:11;;;;;;;12.10;10.87;;;10.40;92.80;;;;;;5134368;27;20514;-68
2021/05/16 01:05:38;;;;;;;12.47;11.27;;;10.40;92.80;;;;;;5134951;27;20047;-68
2021/05/16 01:08:05;;;;;;;12.83;11.63;;;10.40;92.90;;;;;;5135083;27;20063;-68
2021/05/16 01:10:31;;;;;;;10.57;9.57;;;10.40;93.00;;;;;;5134365;27;20047;-68
2021/05/16 01:12:58;;;;;;;11.60;10.50;;;10.40;92.90;;;;;;5134604;27;20517;-68
2021/05/16 01:15:25;;;;;;;12.30;10.87;;;10.50;92.90;;;;;;5134720;27;20403;-68
2021/05/16 01:17:51;;;;;;;14.47;13.07;;;10.50;93.00;;;;;;5134233;27;20066;-68
2021/05/16 01:20:28;;;;;;;11.93;10.73;;;10.50;92.90;;;;;;5134793;27;20411;-68
2021/05/16 01:22:57;;;;;;;9.50;8.60;;;10.50;93.00;;;;;;5134937;27;20141;-68
2021/05/16 01:25:24;;;;;;;10.27;9.33;;;10.50;93.00;;;;;;5133781;27;20503;-68
2021/05/16 01:27:50;;;;;;;12.80;11.50;;;10.50;93.00;;;;;;5134674;27;20166;-68
2021/05/16 01:30:19;;;;;;;12.57;10.80;;;10.40;93.00;;;;;;5134434;27;20171;-68
2021/05/16 01:32:45;;;;;;;10.70;9.60;;;10.40;93.20;;;;;;5133792;27;20043;-68
2021/05/16 01:35:11;;;;;;;12.53;11.07;;;10.40;93.30;;;;;;5134618;27;20054;-68
2021/05/16 01:37:36;;;;;;;12.37;11.17;;;10.30;93.30;;;;;;5134429;27;20043;-68
2021/05/16 01:40:05;;;;;;;14.27;12.80;;;10.40;93.40;;;;;;5133893;27;20058;-68
2021/05/16 01:42:31;;;;;;;17.97;14.53;;;10.40;93.50;;;;;;5134400;27;20442;-68
2021/05/16 01:45:02;;;;;;;14.90;13.40;;;10.40;93.50;;;;;;5133593;27;20050;-68
2021/05/16 01:47:30;;;;;;;18.43;16.37;;;10.40;93.50;;;;;;5134263;27;20051;-68
2021/05/16 01:50:05;;;;;;;17.40;15.70;;;10.40;93.50;;;;;;5134236;27;20047;-68
2021/05/16 01:52:32;;;;;;;17.80;15.90;;;10.40;93.50;;;;;;5133462;27;20117;-68
2021/05/16 01:54:57;;;;;;;18.43;16.70;;;10.40;93.50;;;;;;5134041;27;20075;-68
2021/05/16 01:57:24;;;;;;;18.90;16.93;;;10.40;93.40;;;;;;5133776;27;20472;-68
2021/05/16 01:59:50;;;;;;;18.07;16.17;;;10.40;93.30;;;;;;5133190;27;20043;-68
2021/05/16 02:02:16;;;;;;;19.93;17.80;;;10.40;93.20;;;;;;5133544;27;20087;-68
2021/05/16 02:04:42;;;;;;;16.77;15.07;;;10.40;93.30;;;;;;5132883;27;20134;-68
2021/05/16 02:07:11;;;;;;;18.73;16.73;;;10.40;93.30;;;;;;5133300;27;20142;-68
2021/05/16 02:09:37;;;;;;;19.03;17.03;;;10.40;93.40;;;;;;5133668;27;20099;-68
2021/05/16 02:12:04;;;;;;;19.17;17.23;;;10.40;93.40;;;;;;5133570;27;20058;-68
2021/05/16 02:14:31;;;;;;;17.77;15.87;;;10.30;93.40;;;;;;5132615;27;20054;-68
2021/05/16 02:16:59;;;;;;;20.33;18.33;;;10.40;93.40;;;;;;5133772;27;20083;-68
2021/05/16 02:19:25;;;;;;;22.03;19.67;;;10.40;93.40;;;;;;5133575;27;20043;-68
2021/05/16 02:21:52;;;;;;;20.77;18.67;;;10.40;93.50;;;;;;5132977;27;20047;-68
2021/05/16 02:24:18;;;;;;;20.33;18.17;;;10.40;93.40;;;;;;5133652;27;20126;-68
2021/05/16 02:26:46;;;;;;;19.67;17.57;;;10.40;93.40;;;;;;5133593;27;20069;-68
2021/05/16 02:29:12;;;;;;;22.77;20.57;;;10.40;93.50;;;;;;5132621;27;20050;-68
2021/05/16 02:31:38;;;;;;;22.90;20.50;;;10.40;93.50;;;;;;5133726;27;20047;-68
2021/05/16 02:34:04;;;;;;;22.73;20.33;;;10.40;93.50;;;;;;5132668;27;20155;-68
2021/05/16 02:36:30;;;;;;;21.90;19.70;;;10.40;93.50;;;;;;5133335;27;20047;-68
2021/05/16 02:38:56;;;;;;;22.53;20.33;;;10.40;93.50;;;;;;5133154;27;20044;-68
2021/05/16 02:41:22;;;;;;;22.97;20.67;;;10.40;93.50;;;;;;5132210;27;20391;-68
2021/05/16 02:43:48;;;;;;;22.00;19.70;;;10.40;93.50;;;;;;5133111;27;20047;-68
2021/05/16 02:46:14;;;;;;;21.47;19.30;;;10.40;93.50;;;;;;5133303;27;20821;-68
2021/05/16 02:48:40;;;;;;;21.90;19.60;;;10.40;93.50;;;;;;5132587;27;20047;-68
2021/05/16 02:51:06;;;;;;;22.90;20.40;;;10.40;93.50;;;;;;5133348;27;20116;-68
2021/05/16 02:53:33;;;;;;;22.83;20.43;;;10.40;93.50;;;;;;5133043;27;20047;-68
2021/05/16 02:55:59;;;;;;;24.17;21.57;;;10.40;93.50;;;;;;5132054;27;20503;-68
2021/05/16 02:58:25;;;;;;;24.73;22.03;;;10.40;93.60;;;;;;5132877;27;20047;-68
2021/05/16 03:00:51;;;;;;;24.37;21.30;;;10.30;93.60;;;;;;5132985;27;20047;-68
2021/05/16 03:03:17;;;;;;;23.53;21.10;;;10.40;93.70;;;;;;5131997;27;20051;-68
2021/05/16 03:05:42;;;;;;;24.43;21.90;;;10.30;93.70;;;;;;5132790;27;20130;-68
2021/05/16 03:08:08;;;;;;;24.17;21.77;;;10.30;93.70;;;;;;5133156;27;20396;-68
2021/05/16 03:10:34;;;;;;;25.73;22.80;;;10.40;93.70;;;;;;5131854;27;20043;-68
2021/05/16 03:13:00;;;;;;;25.60;22.80;;;10.40;93.70;;;;;;5132689;27;20058;-68
2021/05/16 03:15:26;;;;;;;26.17;22.93;;;10.40;93.70;;;;;;5132544;27;20042;-68
2021/05/16 03:17:51;;;;;;;25.13;22.43;;;10.40;93.70;;;;;;5131931;27;20111;-68
2021/05/16 03:20:17;;;;;;;26.50;23.70;;;10.40;93.70;;;;;;5132647;27;20134;-67
2021/05/16 03:22:43;;;;;;;25.90;23.10;;;10.50;93.70;;;;;;5132681;28;20051;-67
2021/05/16 03:25:13;;;;;;;25.60;22.40;;;10.50;93.70;;;;;;5132263;28;20039;-67
2021/05/16 03:27:39;;;;;;;26.37;23.57;;;10.50;93.70;;;;;;5132539;28;20050;-68
2021/05/16 03:30:08;;;;;;;25.60;22.90;;;10.50;93.70;;;;;;5132688;27;20067;-68
2021/05/16 03:32:36;;;;;;;26.63;23.87;;;10.60;93.70;;;;;;5131969;28;20138;-68
2021/05/16 03:35:06;;;;;;;24.80;22.30;;;10.60;93.70;;;;;;5132553;28;20100;-68
2021/05/16 03:37:31;;;;;;;27.90;25.03;;;10.60;93.70;;;;;;5131751;27;20130;-68
2021/05/16 03:39:57;;;;;;;24.27;21.70;;;10.60;93.70;;;;;;5132433;28;20135;-68
2021/05/16 03:42:23;;;;;;;28.17;25.03;;;10.60;93.70;;;;;;5132636;28;20043;-68
2021/05/16 03:44:49;;;;;;;28.50;25.40;;;10.70;93.70;;;;;;5131579;28;20051;-68
2021/05/16 03:47:14;;;;;;;27.40;24.33;;;10.70;93.80;;;;;;5132305;28;20099;-68
2021/05/16 03:49:40;;;;;;;31.27;25.33;;;10.70;93.80;;;;;;5132390;28;20448;-68
2021/05/16 03:52:06;;;;;;;29.30;24.13;;;10.70;93.80;;;;;;5132088;28;20047;-68
2021/05/16 03:54:32;;;;;;;27.30;23.57;;;10.70;93.80;;;;;;5132107;28;20071;-68
2021/05/16 03:56:59;;;;;;;30.70;27.27;;;10.80;93.80;;;;;;5132386;28;20055;-68
2021/05/16 03:59:25;;;;;;;31.27;27.07;;;10.70;93.80;;;;;;5131448;28;20045;-68
2021/05/16 04:01:51;;;;;;;29.40;25.83;;;10.70;93.80;;;;;;5132257;28;20118;-68
2021/05/16 04:04:17;;;;;;;30.03;26.73;;;10.70;93.80;;;;;;5132044;28;20474;-68
2021/05/16 04:06:42;;;;;;;29.77;26.37;;;10.70;93.70;;;;;;5131722;28;20075;-68
2021/05/16 04:09:08;;;;;;;29.03;25.33;;;10.70;93.70;;;;;;5132283;28;20404;-68
2021/05/16 04:11:34;;;;;;;33.00;26.53;;;10.70;93.70;;;;;;5132378;28;20043;-68
2021/05/16 04:14:00;;;;;;;31.30;26.83;;;10.70;93.70;;;;;;5131370;28;20047;-68
2021/05/16 04:16:25;;;;;;;32.03;26.43;;;10.70;93.70;;;;;;5132334;28;20538;-68
2021/05/16 04:18:51;;;;;;;30.57;26.80;;;10.70;93.70;;;;;;5132251;28;20403;-68
2021/05/16 04:21:17;;;;;;;31.37;26.97;;;10.70;93.60;;;;;;5131165;28;20055;-68
2021/05/16 04:23:42;;;;;;;30.63;26.80;;;10.70;93.70;;;;;;5132226;28;20047;-68
2021/05/16 04:26:08;;;;;;;32.60;27.40;;;10.80;93.70;;;;;;5132437;28;20066;-68
2021/05/16 04:28:34;;;;;;;33.70;27.07;;;10.80;93.70;;;;;;5133214;27;20361;-68
2021/05/16 04:30:59;;;;;;;31.33;25.77;;;10.70;93.60;;;;;;5135803;27;20122;-68
2021/05/16 04:33:25;;;;;;;32.10;26.23;;;10.80;93.60;;;;;;5135636;27;20130;-68
2021/05/16 04:35:51;;;;;;;33.73;25.80;;;10.80;93.60;;;;;;5134869;27;20415;-68
2021/05/16 04:38:16;;;;;;;30.07;26.67;;;10.80;93.60;;;;;;5135514;27;20046;-68
2021/05/16 04:40:45;;;;;;;34.07;26.23;;;10.80;93.60;;;;;;5134615;27;20051;-68
2021/05/16 04:43:12;;;;;;;31.57;25.07;;;10.80;93.60;;;;;;5135861;27;20055;-68
2021/05/16 04:45:38;;;;;;;31.93;26.70;;;10.80;93.60;;;;;;5135833;27;20123;-68
2021/05/16 04:48:04;;;;;;;27.90;23.87;;;10.80;93.60;;;;;;5134887;27;20471;-68
2021/05/16 04:50:30;;;;;;;29.70;23.90;;;10.70;93.50;;;;;;5135509;27;20065;-68
2021/05/16 04:52:55;;;;;;;28.30;23.80;;;10.80;93.50;;;;;;5135294;27;20130;-68
2021/05/16 04:55:21;;;;;;;26.77;23.07;;;10.80;93.50;;;;;;5134578;27;20495;-67
2021/05/16 04:57:47;;;;;;;26.00;22.67;;;10.70;93.30;;;;;;5135193;27;20055;-67
2021/05/16 05:00:13;;;;;;;25.97;21.43;;;10.60;93.30;;;;;;5135339;27;20096;-67
2021/05/16 05:02:41;;;;;;;30.87;21.60;;;10.60;93.30;;;;;;5134600;27;20050;-69
2021/05/16 05:05:08;;;;;;;29.77;21.87;;;10.60;93.30;;;;;;5135328;27;20078;-68
2021/05/16 05:07:34;;;;;;;28.17;21.90;;;10.50;93.30;;;;;;5134829;27;20134;-68
2021/05/16 05:09:59;;;;;;;24.07;18.13;;;10.50;93.30;;;;;;5134307;27;20135;-67
2021/05/16 05:12:25;;;;;;;30.80;21.27;;;10.60;93.30;;;;;;5134957;27;20165;-67
2021/05/16 05:14:51;;;;;;;29.83;22.27;;;10.60;93.30;;;;;;5134940;27;20122;-68
2021/05/16 05:17:16;;;;;;;32.70;22.90;;;10.60;93.30;;;;;;5134302;27;20051;-67
2021/05/16 05:19:42;;;;;;;30.57;20.83;;;10.60;93.30;;;;;;5134842;27;20514;-68
2021/05/16 05:22:08;;;;;;;33.97;22.90;;;10.60;93.20;;;;;;5135088;27;20540;-67
2021/05/16 05:24:33;;;;;;;35.30;22.77;;;10.60;93.20;;;;;;5134209;27;20071;-68
2021/05/16 05:26:59;;;;;;;35.57;22.73;;;10.60;93.20;;;;;;5134712;27;20085;-68
2021/05/16 05:29:25;;;;;;;42.40;27.83;;;10.60;93.30;;;;;;5134603;27;20157;-67
2021/05/16 05:31:51;;;;;;;43.30;25.50;;;10.60;93.30;;;;;;5133805;27;20479;-68
2021/05/16 05:34:16;;;;;;;39.23;24.70;;;10.60;93.20;;;;;;5134355;27;20476;-67
2021/05/16 05:36:42;;;;;;;43.50;29.07;;;10.60;93.30;;;;;;5134087;27;20099;-68
2021/05/16 05:39:07;;;;;;;40.80;26.50;;;10.60;93.30;;;;;;5134011;27;20448;-67
2021/05/16 05:41:36;;;;;;;45.63;28.43;;;10.60;93.30;;;;;;5134429;27;20468;-67
2021/05/16 05:44:03;;;;;;;45.40;29.13;;;10.60;93.40;;;;;;5133301;27;20051;-68
2021/05/16 05:46:29;;;;;;;42.07;28.43;;;10.50;93.40;;;;;;5134393;27;20047;-67
2021/05/16 05:48:55;;;;;;;42.63;24.70;;;10.60;93.50;;;;;;5134393;27;20045;-67
2021/05/16 05:51:21;;;;;;;48.30;28.30;;;10.60;93.50;;;;;;5133201;27;20459;-67
2021/05/16 05:53:47;;;;;;;46.30;28.97;;;10.70;93.50;;;;;;5134163;27;20051;-67
2021/05/16 05:56:13;;;;;;;43.40;27.57;;;10.70;93.50;;;;;;5134130;27;20398;-67
2021/05/16 05:58:39;;;;;;;48.33;29.00;;;10.70;93.50;;;;;;5133333;27;20607;-67
2021/05/16 06:01:05;;;;;;;50.33;31.90;;;10.70;93.50;;;;;;5133860;27;20047;-68
2021/05/16 06:03:31;;;;;;;44.87;27.80;;;10.70;93.50;;;;;;5133632;27;20054;-67
2021/05/16 06:05:57;;;;;;;46.57;30.83;;;10.70;93.50;;;;;;5133049;27;20054;-67
2021/05/16 06:08:23;;;;;;;44.63;28.63;;;10.70;93.60;;;;;;5133976;27;20468;-68
2021/05/16 06:10:49;;;;;;;47.57;27.60;;;10.70;93.60;;;;;;5133815;27;20043;-67
2021/05/16 06:13:14;;;;;;;47.70;29.93;;;10.70;93.70;;;;;;5132968;27;20402;-68
2021/05/16 06:15:40;;;;;;;52.83;29.67;;;10.80;93.60;;;;;;5133792;27;20047;-67
2021/05/16 06:18:06;;;;;;;47.43;29.50;;;10.80;93.70;;;;;;5134058;27;20051;-68
2021/05/16 06:20:33;;;;;;;45.80;27.43;;;10.90;93.70;;;;;;5132879;27;20486;-67
2021/05/16 06:23:01;;;;;;;40.50;27.77;;;10.90;93.70;;;;;;5133654;27;20075;-68
2021/05/16 06:25:27;;;;;;;41.20;26.77;;;11.00;93.70;;;;;;5133720;27;20085;-68
2021/05/16 06:27:56;;;;;;;41.80;27.33;;;11.00;93.70;;;;;;5132267;27;20536;-67
2021/05/16 06:30:22;;;;;;;35.67;25.50;;;11.10;93.70;;;;;;5133413;27;20096;-67
2021/05/16 06:32:47;;;;;;;38.43;27.13;;;11.10;93.50;;;;;;5133352;27;20050;-67
2021/05/16 06:35:13;;;;;;;39.20;26.40;;;11.10;93.50;;;;;;5132324;27;20444;-68
2021/05/16 06:37:39;;;;;;;35.90;25.07;;;11.20;93.70;;;;;;5133557;27;20058;-68
2021/05/16 06:40:05;;;;;;;35.73;25.77;;;11.30;93.70;;;;;;5133092;27;20379;-68
2021/05/16 06:42:31;;;;;;;36.63;26.73;;;11.30;93.70;;;;;;5132387;27;20047;-68
2021/05/16 06:44:57;;;;;;;31.40;25.27;;;11.40;93.80;;;;;;5132840;27;20054;-67
2021/05/16 06:47:23;;;;;;;32.73;23.33;;;11.50;93.80;;;;;;5132189;27;20495;-67
2021/05/16 06:49:52;;;;;;;32.23;24.73;;;11.60;93.90;;;;;;5132785;27;20502;-68
2021/05/16 06:52:19;;;;;;;38.73;25.63;;;11.70;93.80;;;;;;5132428;27;20055;-67
2021/05/16 06:54:45;;;;;;;37.17;23.83;;;11.70;93.80;;;;;;5132182;27;20046;-68
2021/05/16 06:57:10;;;;;;;32.70;23.50;;;11.80;93.80;;;;;;5133082;27;20050;-68
2021/05/16 06:59:36;;;;;;;31.07;23.83;;;11.90;93.80;;;;;;5132608;27;20077;-67
2021/05/16 07:02:02;;;;;;;34.50;23.10;;;12.00;93.70;;;;;;5131801;27;20126;-67
2021/05/16 07:04:27;;;;;;;33.13;23.43;;;12.00;93.40;;;;;;5132480;27;20043;-67
2021/05/16 07:06:54;;;;;;;26.03;20.90;;;12.10;93.50;;;;;;5132610;27;20091;-67
2021/05/16 07:09:20;;;;;;;28.13;22.27;;;12.10;93.30;;;;;;5131997;27;20130;-67
2021/05/16 07:11:46;;;;;;;28.60;21.03;;;12.10;93.30;;;;;;5132365;27;20067;-67
2021/05/16 07:14:12;;;;;;;25.80;20.60;;;12.20;93.30;;;;;;5132305;27;20050;-66
2021/05/16 07:16:37;;;;;;;25.83;19.53;;;12.20;93.00;;;;;;5132073;27;20042;-66
2021/05/16 07:19:03;;;;;;;28.80;20.13;;;12.30;93.00;;;;;;5132598;27;20078;-67
2021/05/16 07:21:30;;;;;;;23.97;19.50;;;12.30;92.80;;;;;;5132299;27;20483;-67
2021/05/16 07:23:56;;;;;;;25.77;18.67;;;12.40;92.80;;;;;;5131852;28;20039;-67
2021/05/16 07:26:21;;;;;;;22.07;18.60;;;12.40;92.60;;;;;;5132514;28;20104;-67
2021/05/16 07:28:47;;;;;;;24.27;19.70;;;12.40;92.50;;;;;;5132058;28;20051;-67
2021/05/16 07:31:18;;;;;;;24.13;18.63;;;12.50;92.50;;;;;;5131765;28;20143;-67
2021/05/16 07:33:44;;;;;;;24.00;18.27;;;12.60;92.30;;;;;;5132595;28;20051;-67
2021/05/16 07:36:10;;;;;;;23.63;18.97;;;12.60;92.10;;;;;;5132576;28;20047;-67
2021/05/16 07:38:44;;;;;;;26.67;18.87;;;12.70;91.90;;;;;;5131860;28;20043;-67
2021/05/16 07:41:10;;;;;;;24.53;18.83;;;12.70;91.70;;;;;;5132726;28;20050;-67
2021/05/16 07:43:36;;;;;;;22.60;18.00;;;12.60;91.40;;;;;;5131382;28;20043;-67
2021/05/16 07:46:02;;;;;;;23.73;18.80;;;12.60;91.40;;;;;;5132249;28;20051;-67
2021/05/16 07:48:30;;;;;;;23.90;19.20;;;12.60;91.40;;;;;;5132283;28;20054;-67
2021/05/16 07:50:58;;;;;;;22.43;16.73;;;12.60;91.40;;;;;;5131406;27;20043;-67
2021/05/16 07:53:25;;;;;;;26.23;19.23;;;12.60;91.40;;;;;;5132094;28;20051;-68
2021/05/16 07:55:51;;;;;;;25.33;18.67;;;12.50;91.40;;;;;;5132125;28;20456;-67
2021/05/16 07:58:17;;;;;;;28.37;17.60;;;12.50;91.30;;;;;;5131101;28;20051;-67
2021/05/16 08:00:47;;;;;;;23.47;16.80;;;12.40;91.30;;;;;;5131417;28;20142;-67
2021/05/16 08:03:15;;;;;;;25.07;15.67;;;12.30;91.50;;;;;;5121485;27;20086;-67
2021/05/16 08:05:41;;;;;;;19.17;13.23;;;12.30;91.60;;;;;;5126507;27;20092;-67
2021/05/16 08:08:06;;;;;;;15.63;12.13;;;12.40;91.70;;;;;;5135758;27;20042;-66
2021/05/16 08:10:32;;;;;;;18.40;13.03;;;12.40;91.70;;;;;;5135082;27;20091;-67
2021/05/16 08:12:58;;;;;;;22.37;12.97;;;12.50;91.70;;;;;;5134598;27;20039;-67
2021/05/16 08:15:25;;;;;;;16.67;11.67;;;12.60;91.90;;;;;;5135920;27;20552;-67
2021/05/16 08:17:52;;;;;;;18.43;10.90;;;12.60;91.90;;;;;;5135311;27;20478;-67
2021/05/16 08:20:18;;;;;;;17.13;10.53;;;12.60;91.90;;;;;;5134638;27;20526;-68
2021/05/16 08:22:44;;;;;;;18.47;9.57;;;12.60;91.80;;;;;;5134838;27;20066;-67
2021/05/16 08:25:12;;;;;;;16.43;9.67;;;12.60;91.70;;;;;;5135743;27;20082;-67
2021/05/16 08:27:42;;;;;;;16.70;10.37;;;12.40;91.60;;;;;;5134835;27;20499;-66
2021/05/16 08:30:09;;;;;;;15.27;10.37;;;12.40;91.80;;;;;;5135229;27;20495;-66
2021/05/16 08:32:35;;;;;;;15.27;10.47;;;12.30;91.90;;;;;;5135077;27;20523;-66
2021/05/16 08:35:01;;;;;;;19.90;11.47;;;12.30;92.00;;;;;;5134724;27;20051;-66
2021/05/16 08:37:27;;;;;;;16.17;11.27;;;12.40;92.10;;;;;;5134743;27;20043;-67
2021/05/16 08:39:53;;;;;;;18.43;10.53;;;12.40;92.20;;;;;;5134267;27;20047;-66
2021/05/16 08:42:19;;;;;;;19.27;11.30;;;12.50;92.30;;;;;;5134846;27;20426;-67
2021/05/16 08:44:45;;;;;;;14.67;9.87;;;12.60;92.20;;;;;;5134671;27;20039;-67
2021/05/16 08:47:13;;;;;;;15.33;8.87;;;12.70;92.10;;;;;;5134249;27;20047;-67
2021/05/16 08:49:39;;;;;;;11.20;6.80;;;12.80;91.80;;;;;;5134920;27;20388;-67
2021/05/16 08:52:05;;;;;;;12.40;6.73;;;12.90;91.60;;;;;;5134534;27;20050;-67
2021/05/16 08:54:32;;;;;;;7.50;4.23;;;13.00;91.40;;;;;;5133930;27;20039;-67
2021/05/16 08:56:57;;;;;;;4.87;2.77;;;13.10;90.90;;;;;;5133798;27;20116;-67
2021/05/16 08:59:24;;;;;;;4.77;2.00;;;13.10;90.40;;;;;;5134141;27;20051;-67
2021/05/16 09:01:52;;;;;;;5.47;2.00;;;13.10;90.00;;;;;;5133363;27;20406;-67
2021/05/16 09:04:20;;;;;;;3.80;1.77;;;13.00;89.50;;;;;;5133973;27;20055;-67
2021/05/16 09:06:48;;;;;;;6.47;2.50;;;12.90;88.60;;;;;;5134435;27;20047;-67
2021/05/16 09:09:36;;;;;;;3.47;1.50;;;12.70;89.10;;;;;;5133448;27;20043;-67
2021/05/16 09:12:07;;;;;;;5.00;1.80;;;12.60;89.20;;;;;;5133782;27;20137;-66
2021/05/16 09:14:49;;;;;;;4.63;2.17;;;12.40;89.80;;;;;;5133629;27;20104;-66
2021/05/16 09:17:21;;;;;;;;;;;12.20;90.10;;;;;;5132617;27;20066;-67
2021/05/16 09:19:51;;;;;;;5.93;2.85;;;12.10;90.20;;;;;;5134040;27;20009;-67
2021/05/16 09:22:30;;;;;;;6.60;2.90;;;12.00;90.60;;;;;;5133336;27;20039;-67
2021/05/16 09:25:06;;;;;;;6.40;2.90;;;11.90;90.70;;;;;;5132485;27;20493;-66
2021/05/16 09:27:34;;;;;;;6.97;3.50;;;11.80;90.80;;;;;;5134378;27;20054;-66
2021/05/16 09:30:00;;;;;;;8.37;3.53;;;11.80;91.00;;;;;;5133288;27;20116;-66
2021/05/16 09:32:27;;;;;;;6.10;3.10;;;11.80;91.20;;;;;;5134432;27;20051;-66
2021/05/16 09:34:53;;;;;;;5.03;3.00;;;11.80;91.20;;;;;;5134438;27;20047;-67
2021/05/16 09:37:20;;;;;;;7.67;4.40;;;11.80;91.30;;;;;;5133635;27;20043;-67
2021/05/16 09:39:46;;;;;;;9.03;4.20;;;11.80;91.50;;;;;;5134110;27;20403;-67
2021/05/16 09:42:13;;;;;;;9.20;4.53;;;11.80;91.70;;;;;;5134374;27;20047;-67
2021/05/16 09:45:01;;;;;;;11.43;4.70;;;12.00;91.80;;;;;;5133245;27;20103;-66
2021/05/16 09:47:28;;;;;;;8.67;4.80;;;12.10;91.90;;;;;;5133744;27;20050;-67
2021/05/16 09:50:01;;;;;;;7.80;5.17;;;12.20;91.90;;;;;;5133746;27;20062;-67
2021/05/16 09:52:29;;;;;;;9.17;4.97;;;12.30;91.90;;;;;;5133384;27;20054;-67
2021/05/16 09:55:08;;;;;;;10.67;4.80;;;12.30;91.80;;;;;;5133818;27;20081;-66
2021/05/16 09:57:39;;;;;;;7.00;5.40;;;12.30;91.80;;;;;;5133215;27;20099;-66
2021/05/16 10:00:10;;;;;;;10.98;5.95;;;12.40;91.70;;;;;;5133251;27;20482;-66
2021/05/16 10:02:36;;;;;;;11.33;5.40;;;12.40;91.70;;;;;;5133670;27;20100;-67
2021/05/16 10:05:03;;;;;;;9.10;5.83;;;12.50;91.40;;;;;;5132450;27;20436;-66
2021/05/16 10:07:30;;;;;;;7.97;5.10;;;12.60;91.50;;;;;;5129639;27;20043;-65
2021/05/16 10:09:56;;;;;;;10.80;6.03;;;12.80;91.60;;;;;;5130311;27;20050;-65
2021/05/16 10:12:23;;;;;;;8.30;5.97;;;13.10;92.00;;;;;;5126919;27;20050;-64
2021/05/16 10:15:02;;;;;;;10.07;5.60;;;13.50;91.30;;;;;;5123767;27;20523;-64
2021/05/16 10:17:31;;;;;;;8.37;5.60;;;13.70;90.90;;;;;;5132054;27;20191;-65
2021/05/16 10:19:57;;;;;;;8.57;5.90;;;13.90;90.60;;;;;;5130159;27;20051;-65
2021/05/16 10:22:27;;;;;;;7.13;5.10;;;14.10;90.60;;;;;;5126936;27;20124;-65
2021/05/16 10:24:54;;;;;;;6.80;4.57;;;14.40;90.20;;;;;;5126821;27;20138;-65
2021/05/16 10:27:32;;;;;;;7.13;4.53;;;14.70;89.10;;;;;;5124376;27;20452;-66
2021/05/16 10:30:04;;;;;;;8.60;3.77;;;14.90;87.40;;;;;;5116870;27;20039;-65
2021/05/16 10:32:37;;;;;;;6.73;3.83;;;14.90;85.90;;;;;;5131441;27;20047;-65
2021/05/16 10:35:09;;;;;;;7.40;4.00;;;14.90;85.60;;;;;;5132151;27;20122;-65
2021/05/16 10:37:53;;;;;;;5.00;3.50;;;14.70;84.80;;;;;;5130060;27;20403;-65
2021/05/16 10:40:23;;;;;;;4.63;3.50;;;14.60;84.10;;;;;;5129849;27;20181;-65
2021/05/16 10:43:26;;;;;;;4.80;3.43;;;14.40;84.70;;;;;;5132381;27;20051;-67
2021/05/16 10:45:52;;;;;;;5.20;3.37;;;14.40;84.90;;;;;;5126609;27;20042;-65
2021/05/16 10:48:20;;;;;;;5.83;3.00;;;14.30;85.20;;;;;;5131755;27;20051;-66
2021/05/16 10:50:57;;;;;;;5.00;3.03;;;14.40;85.20;;;;;;5132362;27;20043;-66
2021/05/16 10:53:30;;;;;;;3.13;2.03;;;14.50;84.60;;;;;;5130347;27;20081;-66
2021/05/16 10:56:20;;;;;;;2.87;1.73;;;14.60;83.90;;;;;;5129762;27;20135;-66
2021/05/16 10:58:48;;;;;;;2.33;1.17;;;14.50;83.40;;;;;;5130799;27;20446;-67
2021/05/16 11:01:15;;;;;;;2.30;1.10;;;14.50;82.70;;;;;;5128641;27;20050;-67
2021/05/16 11:03:42;;;;;;;3.73;1.40;;;14.30;83.50;;;;;;5131303;27;20514;-68
2021/05/16 11:06:08;;;;;;;4.10;1.43;;;14.10;82.60;;;;;;5132286;27;20104;-67
2021/05/16 11:08:33;;;;;;;3.37;1.47;;;13.90;82.60;;;;;;5131555;27;20434;-67
2021/05/16 11:11:01;;;;;;;3.53;1.10;;;13.80;83.60;;;;;;5132387;27;20072;-66
2021/05/16 11:13:30;;;;;;;2.70;1.50;;;13.70;84.20;;;;;;5131407;27;20051;-65
2021/05/16 11:16:09;;;;;;;3.53;1.47;;;13.70;84.00;;;;;;5131316;27;20046;-65
2021/05/16 11:18:35;;;;;;;2.53;1.30;;;13.70;84.60;;;;;;5131756;27;20072;-66
2021/05/16 11:21:08;;;;;;;3.90;1.50;;;13.60;84.70;;;;;;5131900;27;20051;-66
2021/05/16 11:23:36;;;;;;;2.83;1.60;;;13.60;84.70;;;;;;5128661;27;20035;-66
2021/05/16 11:26:05;;;;;;;3.83;2.03;;;13.60;85.30;;;;;;5131678;28;20115;-66
2021/05/16 11:28:33;;;;;;;6.10;2.60;;;13.40;85.60;;;;;;5131340;27;20403;-65
2021/05/16 11:30:59;;;;;;;5.13;2.87;;;13.30;86.30;;;;;;5131657;27;20138;-65
2021/05/16 11:33:30;;;;;;;4.70;1.60;;;13.40;87.30;;;;;;5131697;28;20088;-65
2021/05/16 11:36:03;;;;;;;4.32;1.67;;;13.40;86.60;;;;;;5128748;28;20075;-65
2021/05/16 11:38:30;;;;;;;4.43;1.47;;;13.30;86.50;;;;;;5135449;27;20050;-65
2021/05/16 11:40:57;;;;;;;5.23;1.57;;;13.10;86.60;;;;;;5135955;27;20482;-66
2021/05/16 11:43:31;;;;;;;3.27;1.33;;;12.90;86.10;;;;;;5134985;27;20114;-66
2021/05/16 11:45:57;;;;;;;1.83;0.77;;;12.60;85.40;;;;;;5133629;27;20043;-65
2021/05/16 11:48:34;;;;;;;3.10;0.83;;;12.40;85.60;;;;;;5135836;27;20046;-68
2021/05/16 11:51:04;;;;;;;1.33;0.60;;;12.20;87.00;;;;;;5133366;27;20058;-67
2021/05/16 11:53:30;;;;;;;3.17;0.97;;;12.10;86.50;;;;;;5135326;27;20050;-66
2021/05/16 11:56:17;;;;;;;1.77;0.80;;;12.00;86.60;;;;;;5134206;27;20111;-66
2021/05/16 11:58:58;;;;;;;3.43;0.70;;;11.90;86.90;;;;;;5133841;27;20075;-66
2021/05/16 12:01:25;;;;;;;3.43;1.23;;;11.80;87.00;;;;;;5133639;27;20479;-66
2021/05/16 12:04:04;;;;;;;3.67;1.20;;;11.70;87.60;;;;;;5133982;27;20451;-66
2021/05/16 12:06:31;;;;;;;3.77;1.27;;;11.60;87.90;;;;;;5134868;27;20546;-66
2021/05/16 12:09:05;;;;;;;3.70;1.30;;;11.70;89.10;;;;;;5135045;27;20039;-65
2021/05/16 12:11:35;;;;;;;5.03;1.70;;;12.00;89.40;;;;;;5134378;27;20043;-66
2021/05/16 12:14:09;;;;;;;2.57;1.37;;;12.40;89.90;;;;;;5135423;27;20050;-65
2021/05/16 12:16:36;;;;;;;6.63;1.80;;;12.90;90.00;;;;;;5132760;27;20047;-66
2021/05/16 12:19:03;;;;;;;2.13;1.30;;;13.30;89.20;;;;;;5134489;27;20050;-65
2021/05/16 12:21:30;;;;;;;5.87;1.20;;;13.80;88.40;;;;;;5135043;27;20043;-66
2021/05/16 12:24:09;;;;;;;2.83;1.00;;;14.10;87.00;;;;;;5134914;27;20146;-66
2021/05/16 12:26:38;;;;;;;4.93;1.30;;;14.40;85.60;;;;;;5132058;27;20047;-65
2021/05/16 12:29:05;;;;;;;3.83;1.03;;;14.60;84.60;;;;;;5134785;27;20400;-65
2021/05/16 12:31:32;;;;;;;2.37;1.17;;;14.80;83.70;;;;;;5134260;27;20401;-65
2021/05/16 12:34:03;;;;;;;3.57;1.00;;;15.00;82.80;;;;;;5133187;27;20047;-64
2021/05/16 12:36:43;;;;;;;5.00;1.30;;;15.20;81.20;;;;;;5134138;27;20049;-65